Time;durP1;ratioP1;P1;durP2;ratioP2;P2;SDS_P1;SDS_P2;PMS_P1;PMS_P2;Temp;Humidity;BMP_temperature;BMP_pressure;BME280_temperature;BME280_humidity;BME280_pressure;Samples;Min_cycle;Max_cycle;Signal;HPM_P1;HPM_P2
2023/02/22 00:00:47;;;;;;;9.27;5.67;;;;;;;6.83;78.07;98633.88;5050792;27;102690;-69
2023/02/22 00:03:23;;;;;;;8.57;5.37;;;;;;;6.97;78.20;98633.91;5052856;27;102825;-68
2023/02/22 00:05:57;;;;;;;10.17;5.30;;;;;;;7.09;76.87;98630.59;5046790;27;103586;-69
2023/02/22 00:08:29;;;;;;;11.60;7.43;;;;;;;6.86;77.90;98628.44;5045601;27;103206;-69
2023/02/22 00:10:57;;;;;;;7.33;5.23;;;;;;;7.04;77.61;98629.16;5047256;27;103998;-69
2023/02/22 00:13:27;;;;;;;10.80;6.87;;;;;;;6.86;76.65;98625.81;5051697;27;102614;-68
2023/02/22 00:15:56;;;;;;;7.60;5.03;;;;;;;6.91;77.38;98626.41;5052492;27;103595;-69
2023/02/22 00:18:27;;;;;;;6.73;5.23;;;;;;;7.12;76.56;98627.78;5046547;27;103145;-69
2023/02/22 00:20:58;;;;;;;6.37;4.47;;;;;;;7.25;75.87;98618.22;5049173;27;102673;-69
2023/02/22 00:23:28;;;;;;;6.97;4.97;;;;;;;7.32;75.36;98619.56;5049001;27;102906;-68
2023/02/22 00:25:58;;;;;;;7.93;6.63;;;;;;;7.07;74.92;98621.97;5043827;27;104375;-69
2023/02/22 00:28:26;;;;;;;11.27;7.67;;;;;;;6.65;76.93;98617.41;5056261;27;103273;-69
2023/02/22 00:30:54;;;;;;;14.23;7.60;;;;;;;6.08;79.64;98618.94;5053116;27;103277;-69
2023/02/22 00:33:22;;;;;;;11.77;7.33;;;;;;;5.97;81.52;98618.69;5044128;27;102747;-69
2023/02/22 00:35:51;;;;;;;11.83;7.80;;;;;;;5.83;82.13;98610.69;5044646;27;104344;-69
2023/02/22 00:38:19;;;;;;;14.20;7.60;;;;;;;5.98;82.61;98615.13;5046344;27;102647;-69
2023/02/22 00:40:47;;;;;;;12.23;6.93;;;;;;;6.19;80.95;98607.84;5046468;27;104499;-69
2023/02/22 00:43:15;;;;;;;12.40;7.27;;;;;;;6.04;82.06;98614.78;5046845;27;102729;-68
2023/02/22 00:45:43;;;;;;;10.00;7.10;;;;;;;5.69;83.03;98613.22;5046553;27;104130;-68
2023/02/22 00:48:12;;;;;;;10.27;6.90;;;;;;;5.89;82.60;98612.16;5049073;27;102717;-69
2023/02/22 00:50:39;;;;;;;8.43;6.43;;;;;;;6.04;81.69;98614.78;5049355;27;102718;-69
2023/02/22 00:53:11;;;;;;;12.13;5.93;;;;;;;6.17;80.89;98609.72;5042874;27;102708;-69
2023/02/22 00:55:39;;;;;;;8.83;5.33;;;;;;;6.43;79.76;98621.38;5067788;27;103287;-69
2023/02/22 00:58:07;;;;;;;9.53;6.87;;;;;;;6.30;78.52;98610.72;5049654;27;103231;-69
2023/02/22 01:00:37;;;;;;;11.17;8.03;;;;;;;5.36;83.61;98604.53;5053860;27;102764;-69
2023/02/22 01:03:05;;;;;;;13.07;7.70;;;;;;;5.20;85.92;98605.31;5044899;27;102964;-68
2023/02/22 01:05:37;;;;;;;12.30;7.53;;;;;;;5.42;85.90;98599.78;5043437;27;103802;-69
2023/02/22 01:08:06;;;;;;;12.07;7.93;;;;;;;5.59;86.05;98596.28;5056085;27;103401;-68
2023/02/22 01:10:37;;;;;;;16.37;8.40;;;;;;;5.74;85.76;98595.47;5051007;27;103296;-69
2023/02/22 01:13:07;;;;;;;10.50;8.33;;;;;;;5.68;85.58;98596.63;5052511;27;102718;-69
2023/02/22 01:15:38;;;;;;;15.57;7.97;;;;;;;5.82;85.49;98593.25;5050608;27;104127;-69
2023/02/22 01:18:07;;;;;;;12.67;8.03;;;;;;;5.90;84.84;98591.09;5054368;27;103455;-69
2023/02/22 01:20:36;;;;;;;14.00;8.10;;;;;;;5.95;84.74;98594.31;5048683;27;102977;-69
2023/02/22 01:23:06;;;;;;;12.17;7.70;;;;;;;5.89;85.35;98592.03;5051454;27;103577;-69
2023/02/22 01:25:36;;;;;;;11.07;7.77;;;;;;;5.98;85.14;98585.44;5049204;27;103194;-69
2023/02/22 01:28:06;;;;;;;12.80;7.40;;;;;;;6.12;85.17;98575.84;5057712;27;104117;-69
2023/02/22 01:30:36;;;;;;;11.23;6.70;;;;;;;6.40;83.61;98581.22;5052008;27;104708;-69
2023/02/22 01:33:06;;;;;;;8.57;6.80;;;;;;;6.37;84.28;98578.78;5048183;27;102666;-69
2023/02/22 01:35:39;;;;;;;9.43;6.57;;;;;;;6.64;82.26;98584.22;5053409;27;104290;-69
2023/02/22 01:38:08;;;;;;;12.30;7.60;;;;;;;6.61;79.93;98578.31;5047201;27;103222;-69
2023/02/22 01:40:40;;;;;;;10.07;7.37;;;;;;;6.48;79.16;98574.72;5052539;27;104811;-69
2023/02/22 01:43:18;;;;;;;8.83;6.37;;;;;;;6.62;77.96;98580.00;5043797;27;103882;-70
2023/02/22 01:46:05;;;;;;;12.10;7.37;;;;;;;6.04;78.71;98570.19;5050100;27;104114;-69
2023/02/22 01:48:39;;;;;;;9.07;7.00;;;;;;;6.27;79.33;98574.16;5044978;27;104293;-69
2023/02/22 01:51:12;;;;;;;10.33;7.30;;;;;;;6.16;79.69;98566.88;5053993;27;102715;-69
2023/02/22 01:53:47;;;;;;;15.17;8.50;;;;;;;6.04;82.92;98566.72;5052967;27;105769;-69
2023/02/22 01:56:17;;;;;;;14.83;9.17;;;;;;;5.67;84.99;98563.47;5051683;27;104034;-69
2023/02/22 01:58:51;;;;;;;10.57;7.57;;;;;;;5.63;86.32;98555.88;5055251;27;106020;-68
2023/02/22 02:01:21;;;;;;;12.63;8.13;;;;;;;5.89;87.19;98549.25;5050434;27;102639;-70
2023/02/22 02:03:51;;;;;;;11.97;8.97;;;;;;;6.07;85.06;98549.03;5046168;27;104300;-69
2023/02/22 02:06:20;;;;;;;11.17;8.43;;;;;;;5.81;87.03;98554.88;5050380;27;103249;-69
2023/02/22 02:08:55;;;;;;;13.00;8.23;;;;;;;5.94;86.46;98547.19;5049962;27;104376;-69
2023/02/22 02:11:26;;;;;;;15.20;8.60;;;;;;;5.95;86.11;98541.84;5044884;27;102820;-69
2023/02/22 02:13:58;;;;;;;10.83;9.00;;;;;;;6.09;84.60;98534.06;5045486;27;102763;-69
2023/02/22 02:16:39;;;;;;;11.33;8.17;;;;;;;6.24;84.25;98533.19;5048870;27;103967;-68
2023/02/22 02:19:19;;;;;;;12.00;9.50;;;;;;;6.40;83.82;98534.00;5052490;27;103262;-69
2023/02/22 02:22:21;;;;;;;10.30;8.60;;;;;;;6.49;83.14;98529.13;5048438;27;102725;-69
2023/02/22 02:25:19;;;;;;;11.90;9.87;;;;;;;6.05;84.87;98536.94;5051151;27;104021;-68
2023/02/22 02:28:25;;;;;;;13.87;10.00;;;;;;;6.31;83.69;98531.94;5048609;27;103204;-69
2023/02/22 02:31:18;;;;;;;10.50;9.40;;;;;;;6.56;82.72;98518.22;5045190;27;103269;-68
2023/02/22 02:33:55;;;;;;;12.67;9.93;;;;;;;6.19;83.28;98519.50;5040389;27;102935;-69
2023/02/22 02:36:30;;;;;;;15.33;11.00;;;;;;;6.23;83.49;98523.63;5049269;27;103473;-68
2023/02/22 02:39:06;;;;;;;14.03;9.83;;;;;;;6.10;84.01;98520.03;5052536;27;104142;-68
2023/02/22 02:41:39;;;;;;;13.80;10.77;;;;;;;5.92;85.14;98515.84;5041718;27;104193;-68
2023/02/22 02:44:13;;;;;;;10.97;8.17;;;;;;;6.30;83.90;98522.34;5041584;27;103074;-68
2023/02/22 02:46:47;;;;;;;14.83;10.07;;;;;;;6.24;83.86;98511.34;5041259;27;102618;-68
2023/02/22 02:49:22;;;;;;;11.07;8.73;;;;;;;6.60;81.82;98503.97;5046382;27;103241;-68
2023/02/22 02:51:53;;;;;;;9.20;8.30;;;;;;;6.68;81.16;98506.16;5053193;27;103246;-68
2023/02/22 02:54:22;;;;;;;11.97;9.60;;;;;;;6.69;80.58;98507.81;5044171;27;102588;-68
2023/02/22 02:56:52;;;;;;;9.73;7.43;;;;;;;6.64;81.19;98504.63;5051986;27;103424;-68
2023/02/22 02:59:28;;;;;;;16.23;9.70;;;;;;;6.37;82.37;98505.31;5047377;27;103323;-68
2023/02/22 03:02:12;;;;;;;12.33;10.40;;;;;;;6.47;81.59;98499.53;5050612;27;103220;-68
2023/02/22 03:04:58;;;;;;;14.37;9.97;;;;;;;6.51;81.08;98498.44;5044610;27;102724;-68
2023/02/22 03:07:49;;;;;;;9.77;7.63;;;;;;;6.57;81.02;98493.63;5047152;27;104317;-68
2023/02/22 03:10:36;;;;;;;11.67;8.97;;;;;;;6.66;81.24;98489.63;5047758;27;103374;-68
2023/02/22 03:13:13;;;;;;;11.03;8.57;;;;;;;6.66;80.56;98487.00;5048651;27;103252;-68
2023/02/22 03:15:52;;;;;;;12.53;8.43;;;;;;;6.56;81.32;98493.75;5054181;27;104086;-68
2023/02/22 03:18:28;;;;;;;13.27;10.27;;;;;;;6.09;82.33;98484.22;5049016;27;102768;-68
2023/02/22 03:21:09;;;;;;;12.63;8.30;;;;;;;6.39;81.65;98479.84;5049808;27;104212;-68
2023/02/22 03:23:46;;;;;;;9.90;7.00;;;;;;;6.69;80.36;98479.78;5050976;27;103213;-67
2023/02/22 03:26:23;;;;;;;8.73;7.33;;;;;;;6.88;79.73;98474.25;5047750;27;105754;-68
2023/02/22 03:28:56;;;;;;;11.20;7.83;;;;;;;6.69;79.73;98471.06;5049595;27;103666;-68
2023/02/22 03:31:28;;;;;;;12.90;8.30;;;;;;;6.75;78.99;98475.94;5044211;27;102913;-68
2023/02/22 03:34:05;;;;;;;8.93;6.73;;;;;;;6.71;79.93;98474.47;5047486;27;103681;-68
2023/02/22 03:36:37;;;;;;;11.70;7.90;;;;;;;6.82;79.45;98472.03;5043022;27;102683;-68
2023/02/22 03:39:11;;;;;;;13.97;8.30;;;;;;;6.73;78.42;98460.31;5048776;27;102675;-68
2023/02/22 03:41:40;;;;;;;12.07;7.63;;;;;;;6.55;80.49;98468.41;5045271;27;103244;-68
2023/02/22 03:44:11;;;;;;;13.73;8.13;;;;;;;6.43;80.61;98470.84;5043298;27;103981;-68
2023/02/22 03:46:42;;;;;;;9.80;7.30;;;;;;;6.72;79.38;98470.88;5045076;27;102850;-68
2023/02/22 03:49:18;;;;;;;8.63;6.67;;;;;;;6.80;78.61;98469.47;5049158;27;103182;-68
2023/02/22 03:51:48;;;;;;;8.60;6.50;;;;;;;6.86;78.42;98469.13;5048971;27;105883;-67
2023/02/22 03:54:16;;;;;;;8.00;7.20;;;;;;;6.92;77.80;98457.38;5057993;27;104025;-68
2023/02/22 03:56:53;;;;;;;8.67;6.37;;;;;;;6.85;78.65;98469.19;5054468;27;103266;-68
2023/02/22 03:59:26;;;;;;;10.50;6.73;;;;;;;6.82;78.66;98477.28;5041732;27;104033;-68
2023/02/22 04:01:55;;;;;;;9.27;7.10;;;;;;;6.69;79.63;98465.81;5047157;27;103670;-68
2023/02/22 04:04:24;;;;;;;10.73;7.03;;;;;;;6.68;78.93;98470.22;5044506;27;103672;-69
2023/02/22 04:06:54;;;;;;;10.73;7.90;;;;;;;6.67;78.68;98472.94;5052964;27;102572;-68
2023/02/22 04:09:23;;;;;;;10.10;7.50;;;;;;;6.67;78.79;98467.69;5048157;27;102687;-68
2023/02/22 04:11:53;;;;;;;8.53;6.37;;;;;;;6.80;78.36;98468.63;5043748;27;104113;-68
2023/02/22 04:14:21;;;;;;;8.07;5.37;;;;;;;6.79;78.35;98465.16;5045345;27;103291;-68
2023/02/22 04:16:50;;;;;;;7.13;5.90;;;;;;;6.72;78.69;98476.97;5046214;27;102770;-69
2023/02/22 04:19:20;;;;;;;13.00;7.67;;;;;;;6.54;78.65;98472.00;5042523;27;103305;-68
2023/02/22 04:21:51;;;;;;;8.77;7.17;;;;;;;6.16;81.28;98467.22;5046291;27;103189;-68
2023/02/22 04:24:24;;;;;;;9.83;7.43;;;;;;;6.32;80.14;98460.13;5034647;27;104532;-68
2023/02/22 04:26:54;;;;;;;9.07;7.23;;;;;;;6.19;80.69;98456.53;5026541;27;102711;-68
2023/02/22 04:29:22;;;;;;;12.43;7.43;;;;;;;6.32;79.87;98461.91;5027282;27;103144;-69
2023/02/22 04:31:50;;;;;;;9.07;7.03;;;;;;;6.38;80.08;98459.78;5028185;27;103921;-68
2023/02/22 04:34:18;;;;;;;10.53;7.23;;;;;;;6.39;79.47;98458.84;5022465;27;105911;-70
2023/02/22 04:36:46;;;;;;;14.57;7.80;;;;;;;5.87;81.16;98462.78;5041789;27;102807;-69
2023/02/22 04:39:15;;;;;;;8.53;6.67;;;;;;;6.10;81.15;98462.31;5043309;27;103473;-69
2023/02/22 04:41:46;;;;;;;7.80;6.97;;;;;;;6.00;81.75;98455.94;5028730;27;104065;-69
2023/02/22 04:44:14;;;;;;;9.90;7.17;;;;;;;6.20;80.95;98452.16;5029742;27;103169;-68
2023/02/22 04:46:42;;;;;;;11.37;7.13;;;;;;;6.33;80.12;98456.59;5039500;27;102689;-67
2023/02/22 04:49:13;;;;;;;9.13;6.30;;;;;;;6.52;78.89;98455.47;5031807;27;103867;-66
2023/02/22 04:51:42;;;;;;;9.87;7.40;;;;;;;6.28;79.25;98456.00;5023592;27;103933;-68
2023/02/22 04:54:12;;;;;;;9.70;7.70;;;;;;;6.22;79.97;98456.38;5025408;27;103367;-67
2023/02/22 04:56:47;;;;;;;9.57;6.37;;;;;;;6.41;80.01;98450.88;5027996;27;102658;-68
2023/02/22 04:59:16;;;;;;;9.90;7.60;;;;;;;6.21;79.53;98449.41;5034694;27;102690;-67
2023/02/22 05:01:46;;;;;;;8.30;6.10;;;;;;;6.31;79.75;98447.97;5028398;27;104231;-67
2023/02/22 05:04:14;;;;;;;7.57;5.90;;;;;;;6.43;79.16;98445.53;5034547;27;103163;-67
2023/02/22 05:06:42;;;;;;;10.20;7.93;;;;;;;6.24;79.69;98445.78;5033026;27;102729;-67
2023/02/22 05:09:10;;;;;;;6.57;5.27;;;;;;;6.39;80.05;98447.50;5027341;27;103921;-67
2023/02/22 05:11:37;;;;;;;9.90;7.07;;;;;;;6.06;79.84;98447.72;5029210;27;103241;-66
2023/02/22 05:14:09;;;;;;;9.33;7.40;;;;;;;6.27;79.35;98442.97;5024507;27;103206;-67
2023/02/22 05:16:39;;;;;;;8.13;6.03;;;;;;;6.51;78.72;98440.69;5030207;27;102641;-67
2023/02/22 05:19:07;;;;;;;5.97;5.13;;;;;;;6.65;78.21;98443.31;5031649;27;103805;-68
2023/02/22 05:21:35;;;;;;;10.53;6.83;;;;;;;6.56;77.71;98433.38;5033282;27;102974;-68
2023/02/22 05:24:06;;;;;;;7.20;6.00;;;;;;;6.62;77.82;98435.63;5031834;27;104237;-67
2023/02/22 05:26:33;;;;;;;7.97;6.30;;;;;;;6.55;78.38;98442.16;5032379;27;102911;-68
2023/02/22 05:29:01;;;;;;;9.23;6.20;;;;;;;6.67;77.82;98436.19;5034429;27;102734;-67
2023/02/22 05:31:30;;;;;;;8.03;5.57;;;;;;;6.59;77.93;98431.41;5030100;27;103764;-68
2023/02/22 05:33:58;;;;;;;9.37;7.30;;;;;;;6.67;77.69;98436.19;5029847;27;103516;-68
2023/02/22 05:36:26;;;;;;;6.90;5.67;;;;;;;6.72;77.57;98434.97;5032932;27;102917;-68
2023/02/22 05:38:54;;;;;;;10.27;6.40;;;;;;;6.70;77.41;98431.59;5025479;27;103629;-68
2023/02/22 05:41:22;;;;;;;8.37;6.23;;;;;;;6.67;77.28;98428.31;5027697;27;103209;-68
2023/02/22 05:43:50;;;;;;;7.33;5.73;;;;;;;6.64;77.88;98425.88;5029238;27;103345;-68
2023/02/22 05:46:18;;;;;;;12.37;6.73;;;;;;;6.56;77.93;98428.13;5033872;27;102687;-68
2023/02/22 05:48:47;;;;;;;8.27;6.37;;;;;;;6.54;77.64;98428.19;5033833;27;102595;-68
2023/02/22 05:51:15;;;;;;;9.57;6.87;;;;;;;6.55;77.56;98422.03;5032617;27;103231;-68
2023/02/22 05:53:43;;;;;;;9.40;6.00;;;;;;;6.65;77.60;98423.13;5032451;27;103373;-68
2023/02/22 05:56:11;;;;;;;7.70;5.43;;;;;;;6.63;77.21;98425.03;5035722;27;102802;-68
2023/02/22 05:58:39;;;;;;;11.10;7.50;;;;;;;6.43;77.54;98428.84;5031391;27;102741;-68
2023/02/22 06:01:07;;;;;;;9.40;6.27;;;;;;;6.43;77.90;98425.38;5034834;27;103287;-68
2023/02/22 06:03:35;;;;;;;6.57;5.13;;;;;;;6.54;78.02;98420.31;5032344;27;104315;-68
2023/02/22 06:06:04;;;;;;;7.73;6.37;;;;;;;6.60;77.42;98424.34;5052860;27;103072;-68
2023/02/22 06:08:32;;;;;;;8.10;6.80;;;;;;;6.38;78.62;98424.81;5034414;27;104093;-68
2023/02/22 06:11:00;;;;;;;9.87;5.97;;;;;;;6.48;77.82;98419.88;5036265;27;103796;-68
2023/02/22 06:13:28;;;;;;;7.13;6.10;;;;;;;6.55;78.25;98421.16;5037058;27;103226;-68
2023/02/22 06:15:56;;;;;;;9.33;6.07;;;;;;;6.55;77.93;98422.03;5028742;27;102655;-68
2023/02/22 06:18:29;;;;;;;8.47;6.77;;;;;;;6.62;77.67;98423.34;5035304;27;102687;-68
2023/02/22 06:20:57;;;;;;;7.03;4.97;;;;;;;6.67;77.84;98430.94;5048937;27;104181;-68
2023/02/22 06:23:27;;;;;;;8.87;6.40;;;;;;;6.66;77.57;98424.84;5029891;27;103556;-67
2023/02/22 06:25:55;;;;;;;12.13;7.60;;;;;;;6.64;77.37;98441.63;5034095;27;102610;-68
2023/02/22 06:28:25;;;;;;;8.67;6.60;;;;;;;6.58;77.77;98437.59;5032914;27;102779;-68
2023/02/22 06:30:53;;;;;;;10.33;6.67;;;;;;;6.66;77.60;98435.34;5026755;27;103835;-67
2023/02/22 06:33:22;;;;;;;10.90;8.07;;;;;;;6.72;77.41;98444.63;5031904;27;104125;-68
2023/02/22 06:35:50;;;;;;;11.03;8.03;;;;;;;6.73;76.81;98441.06;5029024;27;102700;-66
2023/02/22 06:38:24;;;;;;;11.50;10.37;;;;;;;6.89;76.46;98447.06;5032036;27;102955;-66
2023/02/22 06:40:55;;;;;;;9.27;7.90;;;;;;;6.96;76.31;98453.66;5033901;27;103299;-65
2023/02/22 06:43:23;;;;;;;10.57;7.77;;;;;;;6.62;76.75;98443.50;5033387;27;103252;-66
2023/02/22 06:45:51;;;;;;;11.00;8.33;;;;;;;6.40;78.73;98452.66;5028979;27;102635;-67
2023/02/22 06:48:21;;;;;;;7.10;5.87;;;;;;;6.86;77.53;98452.50;5029078;27;102741;-67
2023/02/22 06:50:49;;;;;;;8.30;7.30;;;;;;;6.77;77.06;98451.28;5031295;27;103926;-67
2023/02/22 06:53:17;;;;;;;8.70;6.33;;;;;;;6.99;76.50;98453.44;5026843;27;103306;-67
2023/02/22 06:55:45;;;;;;;6.30;5.33;;;;;;;7.24;75.69;98458.03;5030602;27;102750;-67
2023/02/22 06:58:14;;;;;;;7.87;6.40;;;;;;;7.00;76.52;98455.13;5035644;27;102636;-67
2023/02/22 07:00:42;;;;;;;8.20;6.53;;;;;;;7.23;75.92;98467.69;5029309;27;105590;-67
2023/02/22 07:03:10;;;;;;;14.47;7.53;;;;;;;7.19;75.67;98458.31;5032592;27;103214;-67
2023/02/22 07:05:38;;;;;;;12.87;7.80;;;;;;;7.28;75.59;98460.38;5028418;27;104480;-68
2023/02/22 07:08:08;;;;;;;9.97;6.00;;;;;;;7.50;74.50;98455.44;5029135;27;102881;-67
2023/02/22 07:10:39;;;;;;;7.47;5.90;;;;;;;7.69;74.12;98460.34;5018727;27;103201;-67
2023/02/22 07:13:08;;;;;;;9.87;6.40;;;;;;;7.76;74.21;98456.41;5031133;27;103192;-67
2023/02/22 07:15:37;;;;;;;7.50;5.40;;;;;;;7.89;73.69;98456.44;5024092;27;103089;-67
2023/02/22 07:18:06;;;;;;;10.77;6.50;;;;;;;7.95;73.69;98463.94;5026289;27;102617;-67
2023/02/22 07:20:35;;;;;;;11.50;6.60;;;;;;;8.26;72.69;98460.13;5023417;27;103327;-67
2023/02/22 07:23:02;;;;;;;12.90;7.47;;;;;;;8.38;71.64;98460.19;5049549;27;103348;-67
2023/02/22 07:25:31;;;;;;;7.40;6.03;;;;;;;8.60;70.99;98460.41;5028926;27;102865;-67
2023/02/22 07:27:59;;;;;;;6.83;4.90;;;;;;;8.78;70.82;98460.97;5023644;27;103172;-67
2023/02/22 07:30:29;;;;;;;9.03;6.80;;;;;;;8.64;70.31;98467.19;5024189;27;103349;-67
2023/02/22 07:33:03;;;;;;;9.27;5.97;;;;;;;8.91;70.00;98458.31;5047524;27;103175;-67
2023/02/22 07:35:35;;;;;;;6.43;4.90;;;;;;;9.18;69.45;98467.78;5033533;27;102696;-67
2023/02/22 07:38:04;;;;;;;10.90;6.87;;;;;;;9.05;69.39;98468.75;5023785;27;102920;-67
2023/02/22 07:40:32;;;;;;;7.50;5.60;;;;;;;9.06;69.54;98467.78;5029351;27;103100;-67
2023/02/22 07:43:02;;;;;;;7.37;5.53;;;;;;;9.16;69.24;98466.19;5031874;27;103791;-67
2023/02/22 07:45:35;;;;;;;8.00;6.40;;;;;;;9.23;67.80;98475.38;5029595;27;102731;-67
2023/02/22 07:48:05;;;;;;;8.23;5.37;;;;;;;9.37;68.45;98474.41;5033285;27;102694;-67
2023/02/22 07:50:36;;;;;;;7.57;5.17;;;;;;;9.58;67.62;98471.06;5029089;27;103247;-67
2023/02/22 07:53:05;;;;;;;6.60;5.30;;;;;;;9.77;67.32;98475.84;5033070;27;103259;-67
2023/02/22 07:55:36;;;;;;;5.60;5.00;;;;;;;9.71;67.29;98474.50;5030149;27;102665;-67
2023/02/22 07:58:05;;;;;;;7.13;5.60;;;;;;;9.51;68.03;98468.97;5030616;27;104557;-67
2023/02/22 08:00:35;;;;;;;6.07;4.73;;;;;;;9.67;68.52;98475.69;5027259;27;103404;-66
2023/02/22 08:03:07;;;;;;;8.30;5.67;;;;;;;9.74;67.01;98470.81;5026750;27;103198;-66
2023/02/22 08:05:36;;;;;;;10.50;6.87;;;;;;;9.76;66.63;98475.03;5028997;27;102624;-66
2023/02/22 08:08:05;;;;;;;12.50;6.73;;;;;;;9.67;67.62;98473.03;5031787;27;102893;-67
2023/02/22 08:10:34;;;;;;;8.03;6.10;;;;;;;9.72;68.09;98468.28;5030976;27;103381;-66
2023/02/22 08:13:05;;;;;;;8.93;6.03;;;;;;;10.07;66.53;98464.88;5029191;27;103192;-66
2023/02/22 08:15:37;;;;;;;9.63;6.27;;;;;;;10.05;66.09;98466.78;5032270;27;102883;-66
2023/02/22 08:18:12;;;;;;;6.23;5.00;;;;;;;10.27;65.72;98464.25;5033995;27;103154;-66
2023/02/22 08:20:41;;;;;;;7.17;5.30;;;;;;;10.14;66.03;98463.47;5026381;27;103734;-66
2023/02/22 08:23:12;;;;;;;11.67;7.03;;;;;;;10.65;64.07;98459.56;5026009;27;103797;-66
2023/02/22 08:25:41;;;;;;;13.73;7.40;;;;;;;10.66;64.04;98461.25;5029734;27;104019;-66
2023/02/22 08:28:11;;;;;;;10.13;6.63;;;;;;;11.27;63.68;98462.63;5030143;27;104249;-66
2023/02/22 08:30:42;;;;;;;9.83;7.60;;;;;;;11.15;63.85;98458.28;5038887;27;103215;-72
2023/02/22 08:33:14;;;;;;;10.87;7.07;;;;;;;11.74;61.09;98456.22;5032701;27;103210;-65
2023/02/22 08:35:42;;;;;;;7.20;5.93;;;;;;;12.00;61.28;98452.31;5040643;27;104737;-66
2023/02/22 08:38:16;;;;;;;8.57;5.70;;;;;;;12.50;59.50;98449.91;5032350;27;103141;-66
2023/02/22 08:40:44;;;;;;;11.50;7.70;;;;;;;12.68;58.97;98454.50;5043691;27;103421;-66
2023/02/22 08:43:13;;;;;;;8.90;7.13;;;;;;;12.73;58.66;98446.16;5030430;27;104014;-66
2023/02/22 08:45:41;;;;;;;10.33;7.50;;;;;;;12.18;60.09;98445.47;5027063;27;102704;-67
2023/02/22 08:48:09;;;;;;;8.77;7.07;;;;;;;12.64;59.62;98452.22;5029566;27;103985;-66
2023/02/22 08:50:40;;;;;;;10.47;6.77;;;;;;;12.86;59.79;98452.09;5031105;27;103385;-67
2023/02/22 08:53:09;;;;;;;13.67;6.87;;;;;;;12.53;58.66;98447.00;5035629;27;103198;-66
2023/02/22 08:55:38;;;;;;;11.83;7.03;;;;;;;13.05;58.36;98440.75;5030611;27;102681;-67
2023/02/22 08:58:08;;;;;;;14.90;7.80;;;;;;;13.10;59.17;98446.53;5033409;27;103282;-66
2023/02/22 09:00:38;;;;;;;10.60;7.53;;;;;;;12.81;59.29;98449.00;5028782;27;103618;-67
2023/02/22 09:03:07;;;;;;;14.33;8.57;;;;;;;13.39;58.99;98450.13;5029831;27;103168;-67
2023/02/22 09:05:35;;;;;;;11.13;7.63;;;;;;;13.58;56.42;98452.03;5027796;27;102669;-67
2023/02/22 09:08:06;;;;;;;11.80;7.53;;;;;;;13.66;56.10;98444.22;5027675;27;103043;-66
2023/02/22 09:10:34;;;;;;;9.60;6.83;;;;;;;12.83;58.44;98444.41;5030064;27;104255;-67
2023/02/22 09:13:03;;;;;;;11.40;7.10;;;;;;;13.14;57.70;98446.13;5045615;27;103149;-67
2023/02/22 09:15:34;;;;;;;9.23;6.97;;;;;;;12.39;59.96;98447.31;5029664;27;102618;-67
2023/02/22 09:18:02;;;;;;;7.73;6.13;;;;;;;12.71;59.87;98443.66;5021606;27;104105;-67
2023/02/22 09:20:30;;;;;;;6.93;5.57;;;;;;;12.68;59.86;98437.75;5033916;27;103284;-67
2023/02/22 09:22:58;;;;;;;7.23;4.97;;;;;;;13.54;59.40;98446.16;5036321;27;104167;-67
2023/02/22 09:25:30;;;;;;;7.23;5.30;;;;;;;12.97;57.91;98435.28;5035111;27;103162;-67
2023/02/22 09:27:57;;;;;;;9.60;5.37;;;;;;;11.95;62.42;98449.19;5029802;27;103839;-67
2023/02/22 09:30:30;;;;;;;10.53;5.90;;;;;;;12.59;61.54;98438.53;5034510;27;103255;-67
2023/02/22 09:33:04;;;;;;;7.07;5.10;;;;;;;12.77;60.70;98437.00;5037229;27;103427;-67
2023/02/22 09:35:34;;;;;;;7.07;5.20;;;;;;;12.08;62.14;98444.56;5031283;27;103034;-67
2023/02/22 09:38:05;;;;;;;7.77;5.33;;;;;;;12.54;61.87;98440.75;5038843;27;103220;-67
2023/02/22 09:40:43;;;;;;;6.97;4.80;;;;;;;14.06;58.25;98436.19;5036015;27;102618;-67
2023/02/22 09:43:24;;;;;;;8.67;5.73;;;;;;;13.40;59.29;98433.25;5033407;27;103376;-67
2023/02/22 09:46:12;;;;;;;6.43;5.70;;;;;;;14.04;55.65;98436.31;5035855;27;102846;-67
2023/02/22 09:48:50;;;;;;;8.77;6.37;;;;;;;13.96;57.87;98430.84;5031132;27;102590;-67
2023/02/22 09:51:20;;;;;;;7.50;5.57;;;;;;;14.46;56.96;98421.78;5031475;27;104565;-67
2023/02/22 09:53:51;;;;;;;6.97;4.10;;;;;;;14.96;54.76;98418.91;5034150;27;103261;-67
2023/02/22 09:56:24;;;;;;;7.40;5.67;;;;;;;14.46;53.60;98424.44;5040133;27;102649;-67
2023/02/22 09:58:56;;;;;;;11.43;5.80;;;;;;;14.54;55.62;98423.72;5026264;27;102649;-68
2023/02/22 10:01:28;;;;;;;10.90;6.50;;;;;;;14.91;54.90;98415.81;5034312;27;103013;-67
2023/02/22 10:04:03;;;;;;;8.00;5.97;;;;;;;15.00;54.27;98417.63;5031181;27;102556;-67
2023/02/22 10:06:34;;;;;;;8.00;6.50;;;;;;;15.18;53.51;98415.03;5031292;27;102632;-67
2023/02/22 10:09:07;;;;;;;10.73;6.77;;;;;;;14.66;54.36;98422.59;5029296;27;104067;-69
2023/02/22 10:11:52;;;;;;;7.87;6.33;;;;;;;14.07;54.55;98420.09;5031688;27;103343;-67
2023/02/22 10:14:41;;;;;;;9.00;6.77;;;;;;;14.56;53.73;98405.00;5027830;27;103218;-67
2023/02/22 10:17:18;;;;;;;8.17;6.73;;;;;;;13.88;56.08;98414.78;5032704;27;102680;-67
2023/02/22 10:19:56;;;;;;;11.23;6.80;;;;;;;14.56;53.78;98408.50;5036003;27;103544;-67
2023/02/22 10:22:39;;;;;;;9.53;7.20;;;;;;;14.46;54.31;98411.16;5032188;27;103908;-67
2023/02/22 10:25:12;;;;;;;6.73;4.97;;;;;;;14.71;54.98;98398.25;5031366;27;103289;-67
2023/02/22 10:27:48;;;;;;;6.83;6.13;;;;;;;14.57;54.61;98406.69;5034066;27;102769;-67
2023/02/22 10:30:20;;;;;;;6.87;6.17;;;;;;;15.36;53.87;98402.63;5030127;27;102928;-67
2023/02/22 10:32:59;;;;;;;7.13;5.83;;;;;;;15.25;52.67;98401.00;5025935;27;104187;-67
2023/02/22 10:35:29;;;;;;;8.77;6.83;;;;;;;15.06;53.31;98401.06;5023285;27;104205;-67
2023/02/22 10:38:04;;;;;;;8.60;7.63;;;;;;;15.03;53.83;98398.72;5013476;27;103621;-67
2023/02/22 10:40:32;;;;;;;10.50;6.93;;;;;;;15.25;53.85;98397.47;5036871;27;103020;-66
2023/02/22 10:43:06;;;;;;;9.10;7.23;;;;;;;15.16;53.84;98393.88;5043640;27;103903;-66
2023/02/22 10:45:35;;;;;;;12.93;7.07;;;;;;;15.17;52.23;98395.56;5040042;27;103261;-66
2023/02/22 10:48:10;;;;;;;11.17;6.40;;;;;;;15.49;52.71;98387.19;5040269;27;102877;-66
2023/02/22 10:50:40;;;;;;;6.50;5.90;;;;;;;15.71;52.86;98391.25;5045943;27;103443;-67
2023/02/22 10:53:09;;;;;;;8.37;7.07;;;;;;;13.90;54.55;98389.75;5042881;27;104055;-67
2023/02/22 10:56:11;;;;;;;9.83;7.07;;;;;;;14.73;55.40;98394.47;5039828;27;103458;-66
2023/02/22 10:58:46;;;;;;;7.03;5.73;;;;;;;15.36;53.18;98387.47;5006644;27;104298;-67
2023/02/22 11:01:24;;;;;;;12.40;7.50;;;;;;;15.39;52.75;98373.03;5020503;27;104147;-67
2023/02/22 11:04:02;;;;;;;9.40;7.67;;;;;;;15.31;54.31;98380.94;5021962;27;103795;-67
2023/02/22 11:06:33;;;;;;;9.00;6.70;;;;;;;15.96;52.58;98371.84;5020611;27;102783;-67
2023/02/22 11:09:12;;;;;;;5.90;5.30;;;;;;;16.41;51.18;98371.75;5019837;27;103178;-67
2023/02/22 11:11:42;;;;;;;6.90;6.20;;;;;;;15.99;52.17;98376.88;5023856;27;103012;-68
2023/02/22 11:14:12;;;;;;;11.00;7.83;;;;;;;15.11;54.14;98380.19;5022211;27;103929;-72
2023/02/22 11:16:43;;;;;;;12.23;8.17;;;;;;;15.52;52.83;98379.72;5012829;27;104303;-71
2023/02/22 11:19:23;;;;;;;8.50;7.60;;;;;;;15.52;53.12;98363.75;5018586;27;102840;-70
2023/02/22 11:21:53;;;;;;;9.43;7.43;;;;;;;15.22;53.45;98380.00;5014859;27;102903;-70
2023/02/22 11:24:25;;;;;;;10.03;8.07;;;;;;;16.01;52.68;98364.22;5027372;27;104229;-70
2023/02/22 11:27:05;;;;;;;8.40;7.50;;;;;;;15.84;52.12;98362.41;5011252;27;103888;-71
2023/02/22 11:29:36;;;;;;;11.87;8.30;;;;;;;15.56;52.95;98365.13;5031770;27;102915;-71
2023/02/22 11:32:13;;;;;;;9.50;7.80;;;;;;;15.03;53.88;98366.78;5022218;27;102608;-71
2023/02/22 11:34:42;;;;;;;9.40;8.03;;;;;;;15.70;52.46;98355.78;5022411;27;103304;-71
2023/02/22 11:37:29;;;;;;;10.87;8.00;;;;;;;16.18;51.44;98347.41;5025112;27;104558;-71
2023/02/22 11:40:16;;;;;;;10.20;8.20;;;;;;;15.57;52.62;98350.00;5009961;27;103041;-70
2023/02/22 11:42:44;;;;;;;9.27;6.80;;;;;;;16.97;51.13;98344.63;5020762;27;103191;-70
2023/02/22 11:45:19;;;;;;;10.30;8.20;;;;;;;16.95;50.18;98339.47;5025747;27;105410;-70
2023/02/22 11:47:56;;;;;;;10.70;9.47;;;;;;;16.86;50.47;98336.91;5018036;27;103257;-70